Station Historical Data
Daily Summary for November 13, 2017 Units:  Metric    English   Both
« Previous Day
Next Day »
Daily Weekly Monthly Yearly Custom
  High: Low: Average:
Temperature: 4.9 °C 0.7 °C 3 °C
Dew Point: 2.2 °C -1.2 °C 0.9 °C
Humidity: 91% 81% 86%
Wind Speed: 6.4km/h 0km/h 0.5km/h
Wind Gust: 11.3km/h - -
Wind- - West
Pressure: 1029.3 hPa 1027 hPa -
Precipitation: 0 mm    
Historical Graphs
 
 
Tabular Data for November 13, 2017
Time Temperature Dew Point Pressure Wind Wind Speed Wind Gust Humidity Rainfall Rate (Hourly)
00:04 2.1 °C -0.9 °C 1027.7 hPa Calm     81% 0.25 mm
00:09 1.9 °C -1 °C 1027.7 hPa Calm     81% 0.25 mm
00:14 1.8 °C -0.9 °C 1027.7 hPa Calm     82% 0.25 mm
00:19 1.8 °C -0.9 °C 1027.7 hPa Calm     82% 0.25 mm
00:24 1.8 °C -0.8 °C 1027.7 hPa Calm     83% 0.25 mm
00:29 1.7 °C -0.8 °C 1027.7 hPa Calm     83% 0.51 mm
00:34 1.7 °C -0.8 °C 1027.7 hPa Calm     83% 0.25 mm
00:44 1.7 °C -0.7 °C 1027.7 hPa NE 3.2 km/h 4.8 km/h 84% 0.25 mm
00:49 1.6 °C -0.8 °C 1027.3 hPa NE 1.6 km/h 6.4 km/h 84% 0.25 mm
00:54 1.5 °C -0.9 °C 1027.3 hPa NE 1.6 km/h 6.4 km/h 84% 0.25 mm
00:59 1.4 °C -1.1 °C 1027.3 hPa Calm   4.8 km/h 83% 0.25 mm
01:04 1.4 °C -1.1 °C 1027.3 hPa ENE 3.2 km/h 3.2 km/h 83% 0.25 mm
01:09 1.4 °C -1.1 °C 1027.3 hPa Calm   4.8 km/h 83% 0.25 mm
01:14 1.4 °C -1 °C 1027.3 hPa Calm     84% 0.25 mm
01:19 1.4 °C -1 °C 1027.3 hPa Calm     84% 0.25 mm
01:24 1.3 °C -1.1 °C 1027.3 hPa Calm     84% 0.25 mm
01:29 1.2 °C -1.2 °C 1027.3 hPa Calm     84% 0 mm
01:34 1.2 °C -1.1 °C 1027.3 hPa Calm     85% 0.25 mm
01:39 1.1 °C -1.1 °C 1027.3 hPa Calm     85% 0.25 mm
01:44 1.1 °C -1.2 °C 1027.3 hPa Calm     85% 0.25 mm
01:49 1.1 °C -1.2 °C 1027.3 hPa Calm     85% 0.25 mm
01:54 1 °C -1.1 °C 1027 hPa Calm     86% 0.25 mm
01:59 1 °C -1.1 °C 1027.3 hPa Calm     86% 0.25 mm
02:04 0.9 °C -1.1 °C 1027.3 hPa Calm     86% 0.25 mm
02:09 0.9 °C -1.1 °C 1027.3 hPa Calm     86% 0.25 mm
02:14 0.8 °C -1.2 °C 1027 hPa Calm     86% 0.25 mm
02:19 0.8 °C -1.2 °C 1027 hPa Calm     86% 0.51 mm
02:24 0.8 °C -1.1 °C 1027 hPa Calm     87% 0.51 mm
02:29 0.8 °C -1.2 °C 1027.3 hPa Calm     87% 0.51 mm
02:34 0.8 °C -1.2 °C 1027 hPa Calm     87% 0.25 mm
02:39 0.8 °C -1.2 °C 1027.3 hPa Calm   4.8 km/h 87% 0.51 mm
02:44 0.8 °C -1.2 °C 1027.3 hPa Calm   1.6 km/h 87% 0.51 mm
02:49 0.7 °C -1.2 °C 1027.3 hPa Calm   1.6 km/h 87% 0.51 mm
02:54 0.7 °C -1.1 °C 1027.3 hPa Calm     88% 0.76 mm
02:59 0.7 °C -1.1 °C 1027 hPa Calm     88% 0.76 mm
03:04 0.7 °C -1.1 °C 1027 hPa Calm     88% 1.02 mm
03:09 0.7 °C -1.1 °C 1027 hPa Calm     88% 1.02 mm
03:14 0.7 °C -1.1 °C 1027 hPa Calm     88% 1.02 mm
03:19 0.8 °C -1 °C 1027 hPa Calm     88% 1.02 mm
03:24 0.8 °C -0.8 °C 1027 hPa Calm     89% 1.02 mm
03:29 0.8 °C -0.8 °C 1027 hPa Calm     89% 1.02 mm
03:34 0.7 °C -0.9 °C 1027 hPa Calm     89% 1.27 mm
03:39 0.8 °C -0.8 °C 1027 hPa Calm     89% 1.02 mm
03:44 0.7 °C -0.9 °C 1027 hPa Calm   1.6 km/h 89% 1.02 mm
03:49 0.8 °C -0.8 °C 1027 hPa Calm     89% 1.02 mm
03:54 0.8 °C -0.8 °C 1027 hPa Calm     89% 0.76 mm
03:59 0.8 °C -0.8 °C 1027 hPa ENE 1.6 km/h 4.8 km/h 89% 0.76 mm
04:04 0.8 °C -0.6 °C 1027 hPa Calm   3.2 km/h 90% 0.51 mm
04:09 0.9 °C -0.6 °C 1027 hPa ENE 3.2 km/h 3.2 km/h 90% 0.76 mm
04:14 0.9 °C -0.5 °C 1027 hPa Calm   4.8 km/h 90% 0.76 mm
04:19 0.9 °C -0.5 °C 1027 hPa Calm     90% 0.51 mm
04:24 1 °C -0.4 °C 1027 hPa Calm     90% 0.51 mm
04:29 1 °C -0.4 °C 1027 hPa Calm     90% 0.51 mm
04:34 1 °C -0.4 °C 1027 hPa Calm     90% 0.25 mm
04:39 1.1 °C -0.4 °C 1027 hPa Calm     90% 0.25 mm
04:44 1.1 °C -0.4 °C 1027 hPa Calm     90% 0.25 mm
04:49 1.1 °C -0.4 °C 1027 hPa Calm   3.2 km/h 90% 0.25 mm
04:54 1.1 °C -0.3 °C 1027 hPa Calm   4.8 km/h 90% 0.51 mm
04:59 1.1 °C -0.3 °C 1027 hPa Calm   4.8 km/h 90% 0.51 mm
05:04 1.1 °C -0.3 °C 1027 hPa Calm   3.2 km/h 90% 0.51 mm
05:14 1.1 °C -0.3 °C 1027 hPa Calm     90% 0.25 mm
05:19 1.2 °C -0.3 °C 1027 hPa ENE 1.6 km/h 3.2 km/h 90% 0.25 mm
05:24 1.2 °C -0.2 °C 1027 hPa Calm   3.2 km/h 90% 0.25 mm
05:29 1.3 °C -0.2 °C 1027 hPa Calm   3.2 km/h 90% 0.25 mm
05:34 1.3 °C -0.2 °C 1027 hPa Calm     90% 0.25 mm
05:39 1.3 °C -0.2 °C 1027 hPa Calm     90% 0.25 mm
05:44 1.3 °C -0.1 °C 1027.3 hPa Calm     90% 0.51 mm
05:49 1.3 °C -0.1 °C 1027.3 hPa Calm     90% 0.51 mm
05:54 1.3 °C -0.1 °C 1027.3 hPa Calm     90% 0.25 mm
05:59 1.4 °C -0.1 °C 1027.3 hPa Calm     90% 0.25 mm
06:04 1.4 °C -0.1 °C 1027.3 hPa Calm     90% 0.25 mm
06:09 1.4 °C 0 °C 1027.3 hPa Calm     90% 0.25 mm
06:14 1.4 °C 0 °C 1027.3 hPa Calm     90% 0.25 mm
06:19 1.4 °C 0 °C 1027.3 hPa Calm     90% 0.25 mm
06:24 1.4 °C -0.1 °C 1027.3 hPa Calm     90% 0.25 mm
06:29 1.4 °C 0 °C 1027.3 hPa Calm     90% 0.25 mm
06:34 1.5 °C 0.1 °C 1027.3 hPa Calm     90% 0.51 mm
06:39 1.6 °C 0.1 °C 1027.3 hPa Calm     90% 0.51 mm
06:44 1.6 °C 0.1 °C 1027.3 hPa Calm     90% 0.25 mm
06:49 1.6 °C 0.1 °C 1027.3 hPa Calm     90% 0.25 mm
06:54 1.6 °C 0.1 °C 1027.7 hPa Calm     90% 0.25 mm
06:59 1.6 °C 0.1 °C 1027.7 hPa Calm     90% 0.25 mm
07:04 1.5 °C 0.1 °C 1027.7 hPa Calm     90% 0.25 mm
07:09 1.5 °C 0.1 °C 1027.7 hPa Calm     90% 0.25 mm
07:14 1.5 °C 0.1 °C 1027.7 hPa Calm     90% 0.25 mm
07:19 1.6 °C 0.1 °C 1027.7 hPa Calm     90% 0.25 mm
07:24 1.5 °C 0.1 °C 1027.7 hPa Calm     90% 0.25 mm
07:29 1.6 °C 0.1 °C 1027.7 hPa Calm     90% 0.25 mm
07:34 1.6 °C 0.2 °C 1027.7 hPa Calm     90% 0 mm
07:39 1.6 °C 0.1 °C 1027.7 hPa Calm   4.8 km/h 90% 0 mm
07:44 1.6 °C 0.1 °C 1027.7 hPa Calm   4.8 km/h 90% 0 mm
07:49 1.5 °C 0.2 °C 1027.7 hPa Calm     91% 0 mm
07:54 1.6 °C 0.2 °C 1027.7 hPa Calm     91% 0 mm
07:59 1.6 °C 0.2 °C 1027.7 hPa Calm     91% 0 mm
08:04 1.6 °C 0.2 °C 1028 hPa Calm     91% 0 mm
08:09 1.6 °C 0.3 °C 1028 hPa Calm     91% 0 mm
08:14 1.7 °C 0.3 °C 1028.3 hPa Calm     91% 0 mm
08:19 1.7 °C 0.4 °C 1028.3 hPa Calm     91% 0 mm
08:24 1.8 °C 0.4 °C 1028.3 hPa Calm     91% 0 mm
08:29 1.8 °C 0.3 °C 1028.3 hPa Calm     90% 0 mm
08:34 1.9 °C 0.6 °C 1028.3 hPa Calm     91% 0 mm
08:39 2.1 °C 0.7 °C 1028.3 hPa Calm     91% 0 mm
08:44 2.3 °C 0.9 °C 1028.3 hPa Calm     91% 0 mm
08:49 2.2 °C 0.8 °C 1028.3 hPa Calm     91% 0 mm
08:54 2.3 °C 0.9 °C 1028.3 hPa Calm     91% 0 mm
08:59 2.3 °C 0.8 °C 1028.3 hPa Calm     90% 0 mm
09:14 2.6 °C 1.1 °C 1028.7 hPa NW 1.6 km/h 1.6 km/h 90% 0 mm
09:19 2.7 °C 1.2 °C 1028.3 hPa Calm   4.8 km/h 90% 0 mm
09:24 2.9 °C 1.4 °C 1028.3 hPa West 1.6 km/h 4.8 km/h 90% 0 mm
09:29 2.9 °C 1.4 °C 1028.3 hPa Calm   4.8 km/h 90% 0 mm
09:34 2.9 °C 1.3 °C 1028.3 hPa NW 3.2 km/h 4.8 km/h 89% 0 mm
09:39 2.8 °C 1.2 °C 1028.3 hPa NW 1.6 km/h 4.8 km/h 89% 0 mm
09:44 2.9 °C 1.3 °C 1028.3 hPa Calm     89% 0 mm
09:45 2.9 °C 1.3 °C 1028.3 hPa Calm   3.2 km/h 89% 0 mm
09:54 3.1 °C 1.3 °C 1028.3 hPa Calm   4.8 km/h 88% 0 mm
09:59 3.2 °C 1.6 °C 1028.7 hPa Calm   4.8 km/h 89% 0 mm
10:04 3.3 °C 1.5 °C 1028.7 hPa NW 1.6 km/h 3.2 km/h 88% 0 mm
10:09 3.4 °C 1.6 °C 1028.7 hPa Calm   3.2 km/h 88% 0 mm
10:14 3.4 °C 1.6 °C 1028.7 hPa Calm     88% 0 mm
10:19 3.4 °C 1.7 °C 1028.7 hPa Calm     88% 0 mm
10:24 3.3 °C 1.4 °C 1028.7 hPa Calm   4.8 km/h 87% 0 mm
10:29 3.4 °C 1.5 °C 1028.7 hPa NW 3.2 km/h 6.4 km/h 87% 0 mm
10:39 3.4 °C 1.4 °C 1029 hPa NW 3.2 km/h 9.7 km/h 87% 0 mm
10:44 3.3 °C 1.4 °C 1029 hPa NW 3.2 km/h 9.7 km/h 87% 0 mm
10:49 3.5 °C 1.6 °C 1029 hPa NW 1.6 km/h 6.4 km/h 87% 0 mm
10:54 3.6 °C 1.4 °C 1029 hPa NW 1.6 km/h 6.4 km/h 86% 0 mm
10:59 3.7 °C 1.6 °C 1029 hPa NW 1.6 km/h 6.4 km/h 86% 0 mm
11:04 3.7 °C 1.4 °C 1029 hPa NW 1.6 km/h 6.4 km/h 85% 0 mm
11:09 3.7 °C 1.4 °C 1029 hPa Calm   4.8 km/h 85% 0 mm
11:14 3.8 °C 1.6 °C 1028.7 hPa Calm   4.8 km/h 85% 0 mm
11:19 4 °C 1.6 °C 1028.7 hPa Calm   3.2 km/h 84% 0 mm
11:24 4 °C 1.6 °C 1028.7 hPa Calm   4.8 km/h 84% 0 mm
11:29 4.2 °C 1.7 °C 1028.7 hPa Calm   3.2 km/h 84% 0 mm
11:34 4.2 °C 1.8 °C 1028.7 hPa Calm   4.8 km/h 84% 0 mm
11:39 4.2 °C 1.8 °C 1028.7 hPa Calm   8 km/h 84% 0 mm
11:44 4.2 °C 1.8 °C 1028.7 hPa WNW 1.6 km/h 8 km/h 84% 0 mm
11:49 4.3 °C 1.7 °C 1028.7 hPa NNW 1.6 km/h 4.8 km/h 83% 0 mm
11:54 4.5 °C 2.1 °C 1028.7 hPa NW 1.6 km/h 6.4 km/h 84% 0 mm
11:59 4.6 °C 1.9 °C 1028.7 hPa WNW 1.6 km/h 6.4 km/h 83% 0 mm
12:04 4.6 °C 1.9 °C 1028.7 hPa WNW 3.2 km/h 6.4 km/h 83% 0 mm
12:09 4.6 °C 1.9 °C 1028.7 hPa Calm   4.8 km/h 83% 0 mm
12:14 4.7 °C 2 °C 1028.3 hPa WNW 1.6 km/h 9.7 km/h 83% 0 mm
12:19 4.7 °C 1.8 °C 1028.7 hPa WNW 3.2 km/h 9.7 km/h 82% 0 mm
12:24 4.6 °C 1.7 °C 1028.7 hPa North 1.6 km/h 6.4 km/h 82% 0 mm
12:29 4.5 °C 1.7 °C 1028.7 hPa West 4.8 km/h 8 km/h 82% 0 mm
12:34 4.6 °C 1.8 °C 1028.3 hPa North 4.8 km/h 8 km/h 82% 0 mm
12:39 4.7 °C 1.8 °C 1028.3 hPa Calm   6.4 km/h 82% 0 mm
12:44 4.6 °C 1.8 °C 1028.3 hPa NW 1.6 km/h 6.4 km/h 82% 0 mm
12:49 4.7 °C 1.8 °C 1028.3 hPa NW 3.2 km/h 9.7 km/h 82% 0 mm
12:54 4.6 °C 1.8 °C 1028.3 hPa WNW 3.2 km/h 9.7 km/h 82% 0 mm
12:59 4.6 °C 1.8 °C 1028.3 hPa NNW 3.2 km/h 6.4 km/h 82% 0 mm
13:04 4.7 °C 1.8 °C 1028.3 hPa Calm   6.4 km/h 82% 0 mm
13:09 4.7 °C 1.8 °C 1028 hPa Calm   8 km/h 82% 0 mm
13:14 4.7 °C 1.8 °C 1028 hPa WNW 1.6 km/h 8 km/h 82% 0 mm
13:19 4.8 °C 1.9 °C 1028 hPa NW 1.6 km/h 8 km/h 82% 0 mm
13:24 4.8 °C 1.9 °C 1028.3 hPa NW 1.6 km/h 8 km/h 82% 0 mm
13:29 4.8 °C 1.8 °C 1028 hPa Calm   4.8 km/h 81% 0 mm
13:34 4.9 °C 2.1 °C 1028.3 hPa Calm   6.4 km/h 82% 0 mm
13:39 4.9 °C 2.1 °C 1028.3 hPa NW 1.6 km/h 6.4 km/h 82% 0 mm
13:44 4.8 °C 1.8 °C 1028.3 hPa WNW 3.2 km/h 6.4 km/h 81% 0 mm
13:49 4.7 °C 1.9 °C 1028.3 hPa WNW 3.2 km/h 8 km/h 82% 0 mm
13:54 4.7 °C 1.8 °C 1028.3 hPa NW 3.2 km/h 8 km/h 82% 0 mm
13:59 4.6 °C 1.8 °C 1028.3 hPa NW 3.2 km/h 6.4 km/h 82% 0 mm
14:04 4.6 °C 1.8 °C 1028.3 hPa Calm   6.4 km/h 82% 0 mm
14:09 4.6 °C 1.9 °C 1028.3 hPa NNW 3.2 km/h 8 km/h 83% 0 mm
14:14 4.6 °C 1.9 °C 1028.3 hPa Calm   6.4 km/h 83% 0 mm
14:19 4.6 °C 1.9 °C 1028.3 hPa NW 1.6 km/h 6.4 km/h 83% 0 mm
14:24 4.6 °C 1.9 °C 1028.3 hPa Calm   6.4 km/h 83% 0 mm
14:29 4.6 °C 1.9 °C 1028.3 hPa Calm   8 km/h 83% 0 mm
14:34 4.5 °C 1.9 °C 1028.7 hPa WNW 1.6 km/h 11.3 km/h 83% 0 mm
14:39 4.4 °C 1.8 °C 1028.7 hPa Calm   4.8 km/h 83% 0 mm
14:44 4.4 °C 1.8 °C 1028.7 hPa Calm   6.4 km/h 83% 0 mm
14:49 4.4 °C 1.8 °C 1028.7 hPa Calm   6.4 km/h 83% 0 mm
14:54 4.5 °C 1.9 °C 1028.7 hPa Calm   4.8 km/h 83% 0 mm
14:59 4.4 °C 1.8 °C 1028.7 hPa Calm   8 km/h 83% 0 mm
15:04 4.4 °C 1.8 °C 1028.7 hPa WNW 1.6 km/h 6.4 km/h 83% 0 mm
15:09 4.4 °C 1.8 °C 1028.7 hPa WNW 1.6 km/h 6.4 km/h 83% 0 mm
15:14 4.4 °C 1.8 °C 1029 hPa NW 6.4 km/h 6.4 km/h 83% 0 mm
15:19 4.4 °C 1.9 °C 1028.7 hPa WNW 4.8 km/h 9.7 km/h 84% 0 mm
15:24 4.3 °C 1.9 °C 1028.7 hPa WNW 4.8 km/h 9.7 km/h 84% 0 mm
15:29 4.3 °C 1.8 °C 1028.7 hPa WNW 3.2 km/h 8 km/h 84% 0 mm
15:34 4.2 °C 1.9 °C 1028.7 hPa WNW 1.6 km/h 8 km/h 85% 0 mm
15:39 4.2 °C 1.9 °C 1028.7 hPa Calm   1.6 km/h 85% 0 mm
15:44 4.2 °C 2.1 °C 1028.7 hPa WNW 3.2 km/h 4.8 km/h 86% 0 mm
15:49 4.2 °C 2.1 °C 1029 hPa Calm   4.8 km/h 86% 0 mm
15:54 4.1 °C 2 °C 1028.7 hPa WNW 1.6 km/h 4.8 km/h 86% 0 mm
15:59 4.1 °C 2.2 °C 1029 hPa WNW 1.6 km/h 4.8 km/h 87% 0 mm
16:04 4.1 °C 2.2 °C 1029 hPa WNW 1.6 km/h 4.8 km/h 87% 0 mm
16:09 4.1 °C 2.1 °C 1029 hPa Calm   4.8 km/h 87% 0 mm
16:14 4.1 °C 2.1 °C 1029 hPa Calm     87% 0 mm
16:19 4.1 °C 2.1 °C 1029 hPa West 1.6 km/h 6.4 km/h 87% 0 mm
16:24 4.1 °C 2.1 °C 1029 hPa West 1.6 km/h 6.4 km/h 87% 0 mm
16:29 4.1 °C 2.1 °C 1029 hPa West 1.6 km/h 6.4 km/h 87% 0 mm
16:34 4.1 °C 2.1 °C 1029 hPa Calm     87% 0 mm
16:39 4.1 °C 2.1 °C 1029 hPa Calm   3.2 km/h 87% 0 mm
16:44 4 °C 2.1 °C 1029 hPa Calm     87% 0 mm
16:49 4.1 °C 2.1 °C 1029 hPa Calm     87% 0 mm
16:54 3.9 °C 2 °C 1029 hPa Calm     87% 0 mm
16:59 3.9 °C 1.8 °C 1029 hPa Calm     86% 0 mm
17:04 3.9 °C 1.8 °C 1029 hPa Calm     86% 0 mm
17:09 3.9 °C 2 °C 1029 hPa Calm     87% 0 mm
17:14 3.9 °C 1.8 °C 1029 hPa Calm     86% 0 mm
17:19 4 °C 1.9 °C 1029.3 hPa Calm   3.2 km/h 86% 0 mm
17:24 3.9 °C 1.8 °C 1029.3 hPa Calm   3.2 km/h 86% 0 mm
17:29 4 °C 1.9 °C 1029.3 hPa Calm   3.2 km/h 86% 0 mm
17:34 4.1 °C 1.9 °C 1029.3 hPa Calm     86% 0 mm
17:39 4.1 °C 1.9 °C 1029.3 hPa Calm     86% 0 mm
17:44 4.1 °C 2 °C 1029.3 hPa Calm     86% 0 mm
17:49 4.1 °C 1.9 °C 1029.3 hPa Calm     86% 0 mm
17:54 4.1 °C 2 °C 1029.3 hPa Calm     86% 0 mm
17:59 4.1 °C 2 °C 1029.3 hPa Calm     86% 0 mm
18:04 4.1 °C 1.9 °C 1029.3 hPa Calm     86% 0 mm
18:09 4.1 °C 1.9 °C 1029.3 hPa Calm   4.8 km/h 86% 0 mm
18:14 4.1 °C 1.9 °C 1029.3 hPa West 1.6 km/h 4.8 km/h 86% 0 mm
18:19 4.1 °C 2 °C 1029.3 hPa Calm   6.4 km/h 86% 0 mm
18:24 4.1 °C 2 °C 1029.3 hPa Calm     86% 0 mm
18:29 4.1 °C 2 °C 1029.3 hPa Calm     86% 0 mm
18:39 4.1 °C 1.9 °C 1029 hPa Calm     86% 0 mm
18:44 4.1 °C 1.9 °C 1029 hPa Calm     86% 0 mm
18:49 4.1 °C 1.9 °C 1029 hPa Calm     86% 0 mm
18:54 4.1 °C 1.9 °C 1029 hPa Calm     86% 0 mm
18:59 4 °C 1.9 °C 1029 hPa Calm     86% 0 mm
19:04 4 °C 1.9 °C 1029 hPa Calm     86% 0 mm
19:09 4 °C 1.9 °C 1029 hPa Calm     86% 0 mm
19:14 4 °C 1.9 °C 1029 hPa Calm     86% 0 mm
19:19 4 °C 1.9 °C 1029 hPa Calm     86% 0 mm
19:24 4 °C 1.9 °C 1029 hPa Calm     86% 0 mm
19:29 3.9 °C 2 °C 1029 hPa Calm     87% 0 mm
19:34 3.9 °C 2 °C 1029 hPa Calm     87% 0 mm
19:39 3.9 °C 2 °C 1029 hPa Calm     87% 0 mm
19:44 3.9 °C 2 °C 1029 hPa Calm     87% 0 mm
19:49 3.9 °C 2 °C 1029 hPa Calm     87% 0 mm
19:54 3.9 °C 2 °C 1029.3 hPa Calm     87% 0 mm
19:59 4 °C 2.1 °C 1029.3 hPa Calm     87% 0 mm
20:04 3.9 °C 2 °C 1029.3 hPa Calm     87% 0 mm
20:09 3.9 °C 2 °C 1029.3 hPa Calm     87% 0 mm
20:14 3.9 °C 2 °C 1029.3 hPa Calm     87% 0 mm
20:19 4 °C 2.1 °C 1029.3 hPa Calm     87% 0 mm
20:24 4 °C 2.1 °C 1029.3 hPa Calm     87% 0 mm
20:29 4 °C 1.9 °C 1029.3 hPa Calm     86% 0 mm
20:34 4 °C 1.9 °C 1029.3 hPa Calm     86% 0 mm
20:39 4.1 °C 1.9 °C 1029.3 hPa Calm     86% 0 mm
20:44 4.1 °C 1.9 °C 1029.3 hPa Calm     86% 0 mm
20:49 4.1 °C 1.9 °C 1029 hPa Calm     86% 0 mm
20:54 4.1 °C 1.9 °C 1029.3 hPa WSW 1.6 km/h 3.2 km/h 86% 0 mm
20:59 4.1 °C 1.9 °C 1029.3 hPa WSW 3.2 km/h 3.2 km/h 86% 0 mm
21:04 4 °C 1.9 °C 1029.3 hPa WSW 3.2 km/h 3.2 km/h 86% 0 mm
21:09 4.1 °C 1.8 °C 1029.3 hPa West 1.6 km/h 4.8 km/h 85% 0 mm
21:14 4.1 °C 1.8 °C 1029 hPa West 1.6 km/h 4.8 km/h 85% 0 mm
21:19 4.1 °C 1.8 °C 1029 hPa Calm   4.8 km/h 85% 0 mm
21:24 4.1 °C 1.8 °C 1029 hPa Calm     85% 0 mm
21:29 4.1 °C 1.8 °C 1029 hPa Calm     85% 0 mm
21:34 4.1 °C 1.8 °C 1029 hPa Calm   3.2 km/h 85% 0 mm
21:39 4.1 °C 1.8 °C 1029 hPa Calm   4.8 km/h 85% 0 mm
21:44 4.1 °C 1.8 °C 1029 hPa Calm   4.8 km/h 85% 0 mm
21:49 4.1 °C 1.8 °C 1029 hPa Calm   4.8 km/h 85% 0 mm
21:54 4.2 °C 1.9 °C 1029 hPa Calm   4.8 km/h 85% 0 mm
21:59 4.1 °C 1.8 °C 1028.7 hPa WNW 3.2 km/h 8 km/h 85% 0 mm
22:04 4.1 °C 1.8 °C 1028.7 hPa Calm   3.2 km/h 85% 0 mm
22:09 4.1 °C 1.8 °C 1028.7 hPa Calm     85% 0 mm
22:15 4.1 °C 1.8 °C 1028.7 hPa Calm     85% 0 mm
22:24 4.1 °C 1.8 °C 1028.7 hPa Calm     85% 0 mm
22:29 4.1 °C 1.8 °C 1028.7 hPa Calm     85% 0 mm
22:34 4.1 °C 1.8 °C 1028.7 hPa Calm     85% 0 mm
22:39 4 °C 1.7 °C 1028.3 hPa Calm     85% 0 mm
22:44 4 °C 1.7 °C 1028.3 hPa Calm     85% 0 mm
22:49 3.9 °C 1.7 °C 1028.7 hPa Calm     85% 0 mm
22:54 3.9 °C 1.6 °C 1028.7 hPa Calm     85% 0 mm
22:59 3.8 °C 1.6 °C 1028.7 hPa Calm     85% 0 mm
23:04 3.8 °C 1.7 °C 1028.7 hPa Calm     86% 0 mm
23:09 3.8 °C 1.7 °C 1028.7 hPa Calm     86% 0 mm
23:14 3.7 °C 1.6 °C 1028.7 hPa Calm     86% 0 mm
23:19 3.7 °C 1.6 °C 1028.7 hPa Calm     86% 0 mm
23:24 3.6 °C 1.7 °C 1028.7 hPa Calm     87% 0 mm
23:29 3.6 °C 1.6 °C 1028.7 hPa Calm     87% 0 mm
23:34 3.6 °C 1.6 °C 1028.7 hPa Calm     87% 0 mm
23:39 3.6 °C 1.6 °C 1028.7 hPa Calm     87% 0 mm
23:44 3.5 °C 1.6 °C 1028.3 hPa Calm     87% 0 mm
23:49 3.5 °C 1.6 °C 1028.3 hPa Calm     87% 0 mm
23:54 3.6 °C 1.6 °C 1028.7 hPa Calm     87% 0 mm
23:59 3.6 °C 1.6 °C 1028.7 hPa Calm     87% 0 mm
Buffalo, New York, USA
Compliments of Weather Underground - 2.5 mb